sensor_id;sensor_type;location;lat;lon;timestamp;P1;durP1;ratioP1;P2;durP2;ratioP2
33830;SDS011;20137;48.834;8.732;2023-04-09T00:01:48;26.20;;;16.70;;
33830;SDS011;20137;48.834;8.732;2023-04-09T00:04:13;26.10;;;17.33;;
33830;SDS011;20137;48.834;8.732;2023-04-09T00:06:39;27.52;;;16.42;;
33830;SDS011;20137;48.834;8.732;2023-04-09T00:09:05;24.70;;;17.92;;
33830;SDS011;20137;48.834;8.732;2023-04-09T00:11:31;28.63;;;17.75;;
33830;SDS011;20137;48.834;8.732;2023-04-09T00:13:57;30.63;;;19.58;;
33830;SDS011;20137;48.834;8.732;2023-04-09T00:16:22;27.95;;;18.30;;
33830;SDS011;20137;48.834;8.732;2023-04-09T00:18:48;27.35;;;18.73;;
33830;SDS011;20137;48.834;8.732;2023-04-09T00:21:14;29.63;;;18.35;;
33830;SDS011;20137;48.834;8.732;2023-04-09T00:23:40;27.75;;;18.65;;
33830;SDS011;20137;48.834;8.732;2023-04-09T00:26:07;26.75;;;18.27;;
33830;SDS011;20137;48.834;8.732;2023-04-09T00:28:33;27.00;;;18.40;;
33830;SDS011;20137;48.834;8.732;2023-04-09T00:31:00;27.17;;;18.33;;
33830;SDS011;20137;48.834;8.732;2023-04-09T00:33:26;28.77;;;18.80;;
33830;SDS011;20137;48.834;8.732;2023-04-09T00:35:54;29.45;;;19.08;;
33830;SDS011;20137;48.834;8.732;2023-04-09T00:38:20;29.02;;;18.70;;
33830;SDS011;20137;48.834;8.732;2023-04-09T00:40:49;32.60;;;18.50;;
33830;SDS011;20137;48.834;8.732;2023-04-09T00:43:16;29.20;;;19.63;;
33830;SDS011;20137;48.834;8.732;2023-04-09T00:45:42;27.52;;;18.73;;
33830;SDS011;20137;48.834;8.732;2023-04-09T00:48:09;29.35;;;18.67;;
33830;SDS011;20137;48.834;8.732;2023-04-09T00:50:35;30.35;;;18.63;;
33830;SDS011;20137;48.834;8.732;2023-04-09T00:53:01;28.98;;;19.42;;
33830;SDS011;20137;48.834;8.732;2023-04-09T00:55:27;26.67;;;16.98;;
33830;SDS011;20137;48.834;8.732;2023-04-09T00:57:54;29.10;;;18.65;;
33830;SDS011;20137;48.834;8.732;2023-04-09T01:00:19;27.50;;;18.92;;
33830;SDS011;20137;48.834;8.732;2023-04-09T01:02:45;29.48;;;17.85;;
33830;SDS011;20137;48.834;8.732;2023-04-09T01:05:12;30.40;;;18.73;;
33830;SDS011;20137;48.834;8.732;2023-04-09T01:07:53;29.70;;;18.23;;
33830;SDS011;20137;48.834;8.732;2023-04-09T01:13:22;29.20;;;18.98;;
33830;SDS011;20137;48.834;8.732;2023-04-09T01:16:00;29.20;;;18.35;;
33830;SDS011;20137;48.834;8.732;2023-04-09T01:19:01;31.70;;;18.35;;
33830;SDS011;20137;48.834;8.732;2023-04-09T01:21:33;30.38;;;18.30;;
33830;SDS011;20137;48.834;8.732;2023-04-09T01:29:08;29.90;;;18.98;;
33830;SDS011;20137;48.834;8.732;2023-04-09T01:31:35;34.42;;;20.73;;
33830;SDS011;20137;48.834;8.732;2023-04-09T01:34:02;33.58;;;20.08;;
33830;SDS011;20137;48.834;8.732;2023-04-09T01:36:30;35.58;;;21.00;;
33830;SDS011;20137;48.834;8.732;2023-04-09T01:38:57;34.85;;;21.55;;
33830;SDS011;20137;48.834;8.732;2023-04-09T01:41:25;31.83;;;19.98;;
33830;SDS011;20137;48.834;8.732;2023-04-09T01:43:51;33.50;;;20.35;;
33830;SDS011;20137;48.834;8.732;2023-04-09T01:46:18;33.10;;;19.88;;
33830;SDS011;20137;48.834;8.732;2023-04-09T01:48:45;34.40;;;21.95;;
33830;SDS011;20137;48.834;8.732;2023-04-09T01:51:12;35.90;;;21.65;;
33830;SDS011;20137;48.834;8.732;2023-04-09T01:53:39;37.28;;;20.45;;
33830;SDS011;20137;48.834;8.732;2023-04-09T01:56:05;35.55;;;22.33;;
33830;SDS011;20137;48.834;8.732;2023-04-09T01:58:32;38.88;;;23.13;;
33830;SDS011;20137;48.834;8.732;2023-04-09T02:04:05;37.85;;;22.33;;
33830;SDS011;20137;48.834;8.732;2023-04-09T02:06:43;34.65;;;22.55;;
33830;SDS011;20137;48.834;8.732;2023-04-09T02:09:21;36.00;;;23.30;;
33830;SDS011;20137;48.834;8.732;2023-04-09T02:11:48;35.22;;;22.42;;
33830;SDS011;20137;48.834;8.732;2023-04-09T02:14:15;37.63;;;22.85;;
33830;SDS011;20137;48.834;8.732;2023-04-09T02:16:43;36.00;;;21.83;;
33830;SDS011;20137;48.834;8.732;2023-04-09T02:19:08;36.50;;;22.05;;
33830;SDS011;20137;48.834;8.732;2023-04-09T02:21:34;39.40;;;23.63;;
33830;SDS011;20137;48.834;8.732;2023-04-09T02:24:00;35.78;;;22.45;;
33830;SDS011;20137;48.834;8.732;2023-04-09T02:26:26;36.63;;;21.27;;
33830;SDS011;20137;48.834;8.732;2023-04-09T02:28:52;34.03;;;21.85;;
33830;SDS011;20137;48.834;8.732;2023-04-09T02:31:17;35.70;;;22.30;;
33830;SDS011;20137;48.834;8.732;2023-04-09T02:33:43;31.85;;;20.20;;
33830;SDS011;20137;48.834;8.732;2023-04-09T02:36:12;33.40;;;20.60;;
33830;SDS011;20137;48.834;8.732;2023-04-09T02:38:41;34.33;;;21.23;;
33830;SDS011;20137;48.834;8.732;2023-04-09T02:41:07;33.38;;;21.52;;
33830;SDS011;20137;48.834;8.732;2023-04-09T02:43:33;35.42;;;21.33;;
33830;SDS011;20137;48.834;8.732;2023-04-09T02:45:59;32.95;;;21.25;;
33830;SDS011;20137;48.834;8.732;2023-04-09T02:48:24;35.95;;;21.25;;
33830;SDS011;20137;48.834;8.732;2023-04-09T02:50:50;33.83;;;21.73;;
33830;SDS011;20137;48.834;8.732;2023-04-09T02:53:16;35.67;;;21.50;;
33830;SDS011;20137;48.834;8.732;2023-04-09T02:55:42;34.53;;;20.98;;
33830;SDS011;20137;48.834;8.732;2023-04-09T02:58:07;35.42;;;22.63;;
33830;SDS011;20137;48.834;8.732;2023-04-09T03:00:33;37.08;;;22.75;;
33830;SDS011;20137;48.834;8.732;2023-04-09T03:02:58;37.40;;;23.95;;
33830;SDS011;20137;48.834;8.732;2023-04-09T03:05:24;39.70;;;23.13;;
33830;SDS011;20137;48.834;8.732;2023-04-09T03:07:50;38.75;;;23.10;;
33830;SDS011;20137;48.834;8.732;2023-04-09T03:10:15;37.85;;;23.25;;
33830;SDS011;20137;48.834;8.732;2023-04-09T03:12:41;39.15;;;22.35;;
33830;SDS011;20137;48.834;8.732;2023-04-09T03:15:08;39.60;;;24.15;;
33830;SDS011;20137;48.834;8.732;2023-04-09T03:17:34;37.17;;;23.42;;
33830;SDS011;20137;48.834;8.732;2023-04-09T03:20:00;38.92;;;23.35;;
33830;SDS011;20137;48.834;8.732;2023-04-09T03:22:26;39.85;;;23.80;;
33830;SDS011;20137;48.834;8.732;2023-04-09T03:24:52;41.40;;;24.50;;
33830;SDS011;20137;48.834;8.732;2023-04-09T03:27:17;38.13;;;23.30;;
33830;SDS011;20137;48.834;8.732;2023-04-09T03:29:43;37.10;;;23.75;;
33830;SDS011;20137;48.834;8.732;2023-04-09T03:32:09;41.97;;;23.85;;
33830;SDS011;20137;48.834;8.732;2023-04-09T03:34:34;41.72;;;24.83;;
33830;SDS011;20137;48.834;8.732;2023-04-09T03:37:00;41.33;;;25.40;;
33830;SDS011;20137;48.834;8.732;2023-04-09T03:39:26;43.72;;;25.45;;
33830;SDS011;20137;48.834;8.732;2023-04-09T03:41:55;44.15;;;24.67;;
33830;SDS011;20137;48.834;8.732;2023-04-09T03:44:22;40.80;;;23.80;;
33830;SDS011;20137;48.834;8.732;2023-04-09T03:46:48;39.42;;;23.10;;
33830;SDS011;20137;48.834;8.732;2023-04-09T03:49:13;43.38;;;25.40;;
33830;SDS011;20137;48.834;8.732;2023-04-09T03:51:39;38.95;;;24.05;;
33830;SDS011;20137;48.834;8.732;2023-04-09T03:54:05;39.55;;;23.45;;
33830;SDS011;20137;48.834;8.732;2023-04-09T03:56:31;40.92;;;24.08;;
33830;SDS011;20137;48.834;8.732;2023-04-09T03:58:56;45.00;;;24.65;;
33830;SDS011;20137;48.834;8.732;2023-04-09T04:01:22;41.55;;;24.05;;
33830;SDS011;20137;48.834;8.732;2023-04-09T04:03:47;41.65;;;23.63;;
33830;SDS011;20137;48.834;8.732;2023-04-09T04:06:13;42.95;;;24.88;;
33830;SDS011;20137;48.834;8.732;2023-04-09T04:08:39;38.78;;;23.25;;
33830;SDS011;20137;48.834;8.732;2023-04-09T04:11:05;40.97;;;23.58;;
33830;SDS011;20137;48.834;8.732;2023-04-09T04:13:30;42.95;;;25.10;;
33830;SDS011;20137;48.834;8.732;2023-04-09T04:15:56;40.53;;;24.50;;
33830;SDS011;20137;48.834;8.732;2023-04-09T04:18:22;44.08;;;24.77;;
33830;SDS011;20137;48.834;8.732;2023-04-09T04:20:47;42.55;;;23.55;;
33830;SDS011;20137;48.834;8.732;2023-04-09T04:23:13;42.17;;;24.00;;
33830;SDS011;20137;48.834;8.732;2023-04-09T04:25:39;43.08;;;25.20;;
33830;SDS011;20137;48.834;8.732;2023-04-09T04:28:06;41.60;;;25.35;;
33830;SDS011;20137;48.834;8.732;2023-04-09T04:30:31;42.45;;;24.05;;
33830;SDS011;20137;48.834;8.732;2023-04-09T04:32:57;47.08;;;25.27;;
33830;SDS011;20137;48.834;8.732;2023-04-09T04:35:23;42.55;;;24.85;;
33830;SDS011;20137;48.834;8.732;2023-04-09T04:37:49;41.42;;;24.98;;
33830;SDS011;20137;48.834;8.732;2023-04-09T04:40:15;42.67;;;24.88;;
33830;SDS011;20137;48.834;8.732;2023-04-09T04:42:41;41.30;;;25.05;;
33830;SDS011;20137;48.834;8.732;2023-04-09T04:45:07;40.28;;;23.67;;
33830;SDS011;20137;48.834;8.732;2023-04-09T04:47:33;43.10;;;25.23;;
33830;SDS011;20137;48.834;8.732;2023-04-09T04:49:58;43.75;;;26.17;;
33830;SDS011;20137;48.834;8.732;2023-04-09T04:52:25;43.30;;;25.73;;
33830;SDS011;20137;48.834;8.732;2023-04-09T04:54:51;40.42;;;23.58;;
33830;SDS011;20137;48.834;8.732;2023-04-09T04:57:16;41.80;;;25.05;;
33830;SDS011;20137;48.834;8.732;2023-04-09T04:59:42;40.60;;;24.88;;
33830;SDS011;20137;48.834;8.732;2023-04-09T05:02:08;41.60;;;25.27;;
33830;SDS011;20137;48.834;8.732;2023-04-09T05:04:33;42.63;;;25.75;;
33830;SDS011;20137;48.834;8.732;2023-04-09T05:06:59;43.22;;;25.45;;
33830;SDS011;20137;48.834;8.732;2023-04-09T05:09:25;41.53;;;25.33;;
33830;SDS011;20137;48.834;8.732;2023-04-09T05:11:51;43.55;;;25.85;;
33830;SDS011;20137;48.834;8.732;2023-04-09T05:14:16;47.53;;;27.58;;
33830;SDS011;20137;48.834;8.732;2023-04-09T05:16:42;45.90;;;26.08;;
33830;SDS011;20137;48.834;8.732;2023-04-09T05:19:08;45.80;;;27.08;;
33830;SDS011;20137;48.834;8.732;2023-04-09T05:21:34;47.53;;;27.45;;
33830;SDS011;20137;48.834;8.732;2023-04-09T05:23:59;44.00;;;26.00;;
33830;SDS011;20137;48.834;8.732;2023-04-09T05:26:25;44.58;;;25.58;;
33830;SDS011;20137;48.834;8.732;2023-04-09T05:28:51;43.03;;;25.30;;
33830;SDS011;20137;48.834;8.732;2023-04-09T05:31:17;40.45;;;24.92;;
33830;SDS011;20137;48.834;8.732;2023-04-09T05:33:43;44.70;;;23.42;;
33830;SDS011;20137;48.834;8.732;2023-04-09T05:36:13;37.97;;;23.80;;
33830;SDS011;20137;48.834;8.732;2023-04-09T05:38:40;39.38;;;23.55;;
33830;SDS011;20137;48.834;8.732;2023-04-09T05:41:06;40.25;;;24.55;;
33830;SDS011;20137;48.834;8.732;2023-04-09T05:43:32;38.67;;;23.42;;
33830;SDS011;20137;48.834;8.732;2023-04-09T05:45:58;42.20;;;23.80;;
33830;SDS011;20137;48.834;8.732;2023-04-09T05:48:23;39.42;;;25.27;;
33830;SDS011;20137;48.834;8.732;2023-04-09T05:50:49;37.70;;;23.13;;
33830;SDS011;20137;48.834;8.732;2023-04-09T05:53:16;36.10;;;22.08;;
33830;SDS011;20137;48.834;8.732;2023-04-09T05:55:43;37.40;;;22.92;;
33830;SDS011;20137;48.834;8.732;2023-04-09T05:58:09;35.55;;;22.00;;
33830;SDS011;20137;48.834;8.732;2023-04-09T06:00:35;32.70;;;21.50;;
33830;SDS011;20137;48.834;8.732;2023-04-09T06:03:01;33.22;;;21.13;;
33830;SDS011;20137;48.834;8.732;2023-04-09T06:05:26;37.70;;;21.80;;
33830;SDS011;20137;48.834;8.732;2023-04-09T06:07:52;34.47;;;21.83;;
33830;SDS011;20137;48.834;8.732;2023-04-09T06:10:18;35.67;;;22.13;;
33830;SDS011;20137;48.834;8.732;2023-04-09T06:12:43;29.48;;;19.48;;
33830;SDS011;20137;48.834;8.732;2023-04-09T06:15:09;33.58;;;21.40;;
33830;SDS011;20137;48.834;8.732;2023-04-09T06:17:35;34.42;;;22.05;;
33830;SDS011;20137;48.834;8.732;2023-04-09T06:20:01;34.40;;;23.00;;
33830;SDS011;20137;48.834;8.732;2023-04-09T06:22:27;34.13;;;21.58;;
33830;SDS011;20137;48.834;8.732;2023-04-09T06:24:53;36.20;;;22.98;;
33830;SDS011;20137;48.834;8.732;2023-04-09T06:27:19;30.85;;;21.38;;
33830;SDS011;20137;48.834;8.732;2023-04-09T06:29:46;34.72;;;21.67;;
33830;SDS011;20137;48.834;8.732;2023-04-09T06:32:11;31.95;;;20.70;;
33830;SDS011;20137;48.834;8.732;2023-04-09T06:34:37;35.33;;;20.88;;
33830;SDS011;20137;48.834;8.732;2023-04-09T06:37:03;30.52;;;19.95;;
33830;SDS011;20137;48.834;8.732;2023-04-09T06:39:28;29.52;;;19.67;;
33830;SDS011;20137;48.834;8.732;2023-04-09T06:41:54;30.90;;;19.80;;
33830;SDS011;20137;48.834;8.732;2023-04-09T06:44:20;31.88;;;20.17;;
33830;SDS011;20137;48.834;8.732;2023-04-09T06:46:45;38.60;;;21.23;;
33830;SDS011;20137;48.834;8.732;2023-04-09T06:49:11;33.38;;;21.15;;
33830;SDS011;20137;48.834;8.732;2023-04-09T06:51:37;31.48;;;19.67;;
33830;SDS011;20137;48.834;8.732;2023-04-09T06:54:02;31.90;;;19.27;;
33830;SDS011;20137;48.834;8.732;2023-04-09T06:56:28;33.25;;;21.23;;
33830;SDS011;20137;48.834;8.732;2023-04-09T06:58:54;24.13;;;16.33;;
33830;SDS011;20137;48.834;8.732;2023-04-09T07:01:19;26.95;;;17.30;;
33830;SDS011;20137;48.834;8.732;2023-04-09T07:03:45;27.17;;;18.77;;
33830;SDS011;20137;48.834;8.732;2023-04-09T07:06:11;30.05;;;19.17;;
33830;SDS011;20137;48.834;8.732;2023-04-09T07:08:36;31.75;;;20.52;;
33830;SDS011;20137;48.834;8.732;2023-04-09T07:11:02;30.92;;;18.98;;
33830;SDS011;20137;48.834;8.732;2023-04-09T07:13:28;29.60;;;19.95;;
33830;SDS011;20137;48.834;8.732;2023-04-09T07:15:53;30.30;;;19.65;;
33830;SDS011;20137;48.834;8.732;2023-04-09T07:18:19;29.02;;;19.55;;
33830;SDS011;20137;48.834;8.732;2023-04-09T07:20:45;30.45;;;19.88;;
33830;SDS011;20137;48.834;8.732;2023-04-09T07:23:10;30.58;;;19.40;;
33830;SDS011;20137;48.834;8.732;2023-04-09T07:25:36;31.67;;;19.85;;
33830;SDS011;20137;48.834;8.732;2023-04-09T07:28:02;26.25;;;17.33;;
33830;SDS011;20137;48.834;8.732;2023-04-09T07:30:28;27.33;;;18.02;;
33830;SDS011;20137;48.834;8.732;2023-04-09T07:32:54;49.20;;;26.73;;
33830;SDS011;20137;48.834;8.732;2023-04-09T07:35:20;185.63;;;77.50;;
33830;SDS011;20137;48.834;8.732;2023-04-09T07:37:45;85.47;;;43.42;;
33830;SDS011;20137;48.834;8.732;2023-04-09T07:40:11;33.38;;;21.13;;
33830;SDS011;20137;48.834;8.732;2023-04-09T07:42:37;32.33;;;21.80;;
33830;SDS011;20137;48.834;8.732;2023-04-09T07:45:03;33.67;;;21.35;;
33830;SDS011;20137;48.834;8.732;2023-04-09T07:47:30;34.45;;;22.13;;
33830;SDS011;20137;48.834;8.732;2023-04-09T07:49:56;34.38;;;20.50;;
33830;SDS011;20137;48.834;8.732;2023-04-09T07:52:22;31.88;;;19.65;;
33830;SDS011;20137;48.834;8.732;2023-04-09T07:54:48;31.25;;;21.58;;
33830;SDS011;20137;48.834;8.732;2023-04-09T07:57:14;27.20;;;17.23;;
33830;SDS011;20137;48.834;8.732;2023-04-09T07:59:40;30.60;;;19.27;;
33830;SDS011;20137;48.834;8.732;2023-04-09T08:02:05;27.15;;;16.60;;
33830;SDS011;20137;48.834;8.732;2023-04-09T08:04:32;26.38;;;15.75;;
33830;SDS011;20137;48.834;8.732;2023-04-09T08:06:57;25.33;;;17.05;;
33830;SDS011;20137;48.834;8.732;2023-04-09T08:09:23;25.42;;;17.15;;
33830;SDS011;20137;48.834;8.732;2023-04-09T08:11:49;24.20;;;15.57;;
33830;SDS011;20137;48.834;8.732;2023-04-09T08:14:15;24.48;;;15.23;;
33830;SDS011;20137;48.834;8.732;2023-04-09T08:16:43;18.35;;;13.07;;
33830;SDS011;20137;48.834;8.732;2023-04-09T08:19:10;17.10;;;11.23;;
33830;SDS011;20137;48.834;8.732;2023-04-09T08:21:37;19.50;;;13.55;;
33830;SDS011;20137;48.834;8.732;2023-04-09T08:24:07;19.85;;;13.45;;
33830;SDS011;20137;48.834;8.732;2023-04-09T08:26:35;17.80;;;12.68;;
33830;SDS011;20137;48.834;8.732;2023-04-09T08:29:04;19.02;;;12.25;;
33830;SDS011;20137;48.834;8.732;2023-04-09T08:31:30;16.73;;;10.80;;
33830;SDS011;20137;48.834;8.732;2023-04-09T08:33:55;17.67;;;12.15;;
33830;SDS011;20137;48.834;8.732;2023-04-09T08:36:21;15.65;;;11.73;;
33830;SDS011;20137;48.834;8.732;2023-04-09T08:38:47;18.38;;;12.35;;
33830;SDS011;20137;48.834;8.732;2023-04-09T08:41:16;15.88;;;10.88;;
33830;SDS011;20137;48.834;8.732;2023-04-09T08:43:45;14.20;;;10.35;;
33830;SDS011;20137;48.834;8.732;2023-04-09T08:46:12;14.80;;;10.20;;
33830;SDS011;20137;48.834;8.732;2023-04-09T08:48:40;14.82;;;10.30;;
33830;SDS011;20137;48.834;8.732;2023-04-09T08:51:20;13.13;;;9.40;;
33830;SDS011;20137;48.834;8.732;2023-04-09T08:53:56;14.35;;;9.88;;
33830;SDS011;20137;48.834;8.732;2023-04-09T08:56:24;11.95;;;8.77;;
33830;SDS011;20137;48.834;8.732;2023-04-09T08:58:50;12.45;;;8.85;;
33830;SDS011;20137;48.834;8.732;2023-04-09T09:01:24;11.30;;;8.30;;
33830;SDS011;20137;48.834;8.732;2023-04-09T09:03:55;10.73;;;8.57;;
33830;SDS011;20137;48.834;8.732;2023-04-09T09:06:23;11.63;;;7.70;;
33830;SDS011;20137;48.834;8.732;2023-04-09T09:08:59;12.10;;;8.43;;
33830;SDS011;20137;48.834;8.732;2023-04-09T09:11:30;11.57;;;7.47;;
33830;SDS011;20137;48.834;8.732;2023-04-09T09:14:06;10.15;;;7.43;;
33830;SDS011;20137;48.834;8.732;2023-04-09T09:16:37;10.90;;;7.50;;
33830;SDS011;20137;48.834;8.732;2023-04-09T09:19:07;12.60;;;8.70;;
33830;SDS011;20137;48.834;8.732;2023-04-09T09:22:02;11.80;;;8.35;;
33830;SDS011;20137;48.834;8.732;2023-04-09T09:24:30;11.93;;;7.95;;
33830;SDS011;20137;48.834;8.732;2023-04-09T09:26:57;11.55;;;8.30;;
33830;SDS011;20137;48.834;8.732;2023-04-09T09:29:24;9.95;;;7.80;;
33830;SDS011;20137;48.834;8.732;2023-04-09T09:31:51;11.10;;;7.15;;
33830;SDS011;20137;48.834;8.732;2023-04-09T09:34:18;8.77;;;7.03;;
33830;SDS011;20137;48.834;8.732;2023-04-09T09:36:44;10.10;;;6.45;;
33830;SDS011;20137;48.834;8.732;2023-04-09T09:39:11;7.93;;;6.00;;
33830;SDS011;20137;48.834;8.732;2023-04-09T09:41:38;9.77;;;6.70;;
33830;SDS011;20137;48.834;8.732;2023-04-09T09:44:06;9.65;;;6.22;;
33830;SDS011;20137;48.834;8.732;2023-04-09T09:46:33;7.68;;;5.55;;
33830;SDS011;20137;48.834;8.732;2023-04-09T09:49:02;7.65;;;5.53;;
33830;SDS011;20137;48.834;8.732;2023-04-09T09:51:28;7.40;;;5.18;;
33830;SDS011;20137;48.834;8.732;2023-04-09T09:53:56;6.65;;;5.00;;
33830;SDS011;20137;48.834;8.732;2023-04-09T09:56:23;6.00;;;4.45;;
33830;SDS011;20137;48.834;8.732;2023-04-09T10:01:41;8.10;;;4.80;;
33830;SDS011;20137;48.834;8.732;2023-04-09T10:04:12;7.07;;;4.22;;
33830;SDS011;20137;48.834;8.732;2023-04-09T10:06:41;8.63;;;5.05;;
33830;SDS011;20137;48.834;8.732;2023-04-09T10:09:08;6.82;;;4.80;;
33830;SDS011;20137;48.834;8.732;2023-04-09T10:11:35;8.23;;;5.70;;
33830;SDS011;20137;48.834;8.732;2023-04-09T10:14:02;6.93;;;4.80;;
33830;SDS011;20137;48.834;8.732;2023-04-09T10:16:31;5.53;;;4.57;;
33830;SDS011;20137;48.834;8.732;2023-04-09T10:18:57;6.13;;;4.45;;
33830;SDS011;20137;48.834;8.732;2023-04-09T10:23:59;6.85;;;4.93;;
33830;SDS011;20137;48.834;8.732;2023-04-09T10:26:31;6.75;;;4.75;;
33830;SDS011;20137;48.834;8.732;2023-04-09T10:31:50;7.95;;;4.63;;
33830;SDS011;20137;48.834;8.732;2023-04-09T10:34:20;33.17;;;12.27;;
33830;SDS011;20137;48.834;8.732;2023-04-09T10:37:29;8.20;;;5.57;;
33830;SDS011;20137;48.834;8.732;2023-04-09T10:39:44;33.63;;;12.35;;
33830;SDS011;20137;48.834;8.732;2023-04-09T10:42:12;14.90;;;7.97;;
33830;SDS011;20137;48.834;8.732;2023-04-09T10:44:40;7.15;;;4.72;;
33830;SDS011;20137;48.834;8.732;2023-04-09T10:47:07;7.25;;;5.43;;
33830;SDS011;20137;48.834;8.732;2023-04-09T10:49:37;8.73;;;5.32;;
33830;SDS011;20137;48.834;8.732;2023-04-09T10:52:08;7.03;;;5.07;;
33830;SDS011;20137;48.834;8.732;2023-04-09T10:54:39;5.95;;;4.65;;
33830;SDS011;20137;48.834;8.732;2023-04-09T10:59:38;6.43;;;4.55;;
33830;SDS011;20137;48.834;8.732;2023-04-09T11:05:17;4.88;;;3.67;;
33830;SDS011;20137;48.834;8.732;2023-04-09T11:08:02;7.03;;;4.55;;
33830;SDS011;20137;48.834;8.732;2023-04-09T11:10:28;6.47;;;4.43;;
33830;SDS011;20137;48.834;8.732;2023-04-09T11:12:53;4.93;;;4.10;;
33830;SDS011;20137;48.834;8.732;2023-04-09T11:15:19;5.25;;;3.95;;
33830;SDS011;20137;48.834;8.732;2023-04-09T11:17:45;4.47;;;3.72;;
33830;SDS011;20137;48.834;8.732;2023-04-09T11:20:16;8.27;;;5.18;;
33830;SDS011;20137;48.834;8.732;2023-04-09T11:22:44;6.30;;;4.85;;
33830;SDS011;20137;48.834;8.732;2023-04-09T11:25:16;6.53;;;4.47;;
33830;SDS011;20137;48.834;8.732;2023-04-09T11:27:52;5.18;;;4.15;;
33830;SDS011;20137;48.834;8.732;2023-04-09T11:30:18;4.72;;;3.50;;
33830;SDS011;20137;48.834;8.732;2023-04-09T11:32:44;6.18;;;4.97;;
33830;SDS011;20137;48.834;8.732;2023-04-09T11:35:14;4.53;;;3.70;;
33830;SDS011;20137;48.834;8.732;2023-04-09T11:37:41;5.95;;;4.30;;
33830;SDS011;20137;48.834;8.732;2023-04-09T11:40:14;5.50;;;3.95;;
33830;SDS011;20137;48.834;8.732;2023-04-09T11:42:46;7.45;;;5.22;;
33830;SDS011;20137;48.834;8.732;2023-04-09T11:45:14;7.63;;;4.47;;
33830;SDS011;20137;48.834;8.732;2023-04-09T11:47:40;6.47;;;4.55;;
33830;SDS011;20137;48.834;8.732;2023-04-09T11:50:07;6.22;;;4.45;;
33830;SDS011;20137;48.834;8.732;2023-04-09T11:52:34;6.05;;;4.35;;
33830;SDS011;20137;48.834;8.732;2023-04-09T11:55:04;6.65;;;5.03;;
33830;SDS011;20137;48.834;8.732;2023-04-09T12:00:05;8.13;;;5.07;;
33830;SDS011;20137;48.834;8.732;2023-04-09T12:02:33;8.85;;;6.10;;
33830;SDS011;20137;48.834;8.732;2023-04-09T12:05:04;6.70;;;5.30;;
33830;SDS011;20137;48.834;8.732;2023-04-09T12:07:34;6.85;;;5.50;;
33830;SDS011;20137;48.834;8.732;2023-04-09T12:10:03;7.55;;;5.88;;
33830;SDS011;20137;48.834;8.732;2023-04-09T12:12:30;9.85;;;6.50;;
33830;SDS011;20137;48.834;8.732;2023-04-09T12:15:08;6.40;;;5.13;;
33830;SDS011;20137;48.834;8.732;2023-04-09T12:17:36;7.80;;;5.88;;
33830;SDS011;20137;48.834;8.732;2023-04-09T12:20:03;8.00;;;6.00;;
33830;SDS011;20137;48.834;8.732;2023-04-09T12:22:31;7.35;;;5.18;;
33830;SDS011;20137;48.834;8.732;2023-04-09T12:24:56;7.28;;;5.38;;
33830;SDS011;20137;48.834;8.732;2023-04-09T12:27:22;6.05;;;5.07;;
33830;SDS011;20137;48.834;8.732;2023-04-09T12:29:48;7.97;;;5.78;;
33830;SDS011;20137;48.834;8.732;2023-04-09T12:32:13;6.75;;;5.10;;
33830;SDS011;20137;48.834;8.732;2023-04-09T12:34:39;8.02;;;5.32;;
33830;SDS011;20137;48.834;8.732;2023-04-09T12:37:05;7.47;;;5.35;;
33830;SDS011;20137;48.834;8.732;2023-04-09T12:39:30;7.15;;;5.43;;
33830;SDS011;20137;48.834;8.732;2023-04-09T12:41:56;6.97;;;5.15;;
33830;SDS011;20137;48.834;8.732;2023-04-09T12:44:22;7.90;;;5.35;;
33830;SDS011;20137;48.834;8.732;2023-04-09T12:46:47;8.38;;;6.28;;
33830;SDS011;20137;48.834;8.732;2023-04-09T12:49:13;5.65;;;4.55;;
33830;SDS011;20137;48.834;8.732;2023-04-09T12:51:40;7.32;;;6.00;;
33830;SDS011;20137;48.834;8.732;2023-04-09T12:54:05;7.03;;;5.40;;
33830;SDS011;20137;48.834;8.732;2023-04-09T12:56:31;8.02;;;6.00;;
33830;SDS011;20137;48.834;8.732;2023-04-09T12:58:57;7.38;;;5.63;;
33830;SDS011;20137;48.834;8.732;2023-04-09T13:01:22;5.15;;;4.32;;
33830;SDS011;20137;48.834;8.732;2023-04-09T13:03:48;7.50;;;5.53;;
33830;SDS011;20137;48.834;8.732;2023-04-09T13:06:14;7.97;;;6.07;;
33830;SDS011;20137;48.834;8.732;2023-04-09T13:08:39;6.97;;;5.28;;
33830;SDS011;20137;48.834;8.732;2023-04-09T13:11:05;7.47;;;5.97;;
33830;SDS011;20137;48.834;8.732;2023-04-09T13:13:31;8.48;;;5.47;;
33830;SDS011;20137;48.834;8.732;2023-04-09T13:15:57;7.40;;;5.65;;
33830;SDS011;20137;48.834;8.732;2023-04-09T13:18:23;8.45;;;5.13;;
33830;SDS011;20137;48.834;8.732;2023-04-09T13:20:48;7.95;;;5.60;;
33830;SDS011;20137;48.834;8.732;2023-04-09T13:23:14;8.60;;;5.80;;
33830;SDS011;20137;48.834;8.732;2023-04-09T13:25:40;9.18;;;6.05;;
33830;SDS011;20137;48.834;8.732;2023-04-09T13:28:05;8.52;;;6.00;;
33830;SDS011;20137;48.834;8.732;2023-04-09T13:30:31;7.50;;;5.72;;
33830;SDS011;20137;48.834;8.732;2023-04-09T13:32:57;7.00;;;5.38;;
33830;SDS011;20137;48.834;8.732;2023-04-09T13:35:22;8.95;;;5.97;;
33830;SDS011;20137;48.834;8.732;2023-04-09T13:37:48;8.38;;;5.78;;
33830;SDS011;20137;48.834;8.732;2023-04-09T13:40:14;7.20;;;5.22;;
33830;SDS011;20137;48.834;8.732;2023-04-09T13:42:40;8.15;;;5.60;;
33830;SDS011;20137;48.834;8.732;2023-04-09T13:45:06;6.65;;;5.13;;
33830;SDS011;20137;48.834;8.732;2023-04-09T13:47:32;5.85;;;4.63;;
33830;SDS011;20137;48.834;8.732;2023-04-09T13:49:58;6.80;;;5.30;;
33830;SDS011;20137;48.834;8.732;2023-04-09T13:52:24;6.38;;;5.15;;
33830;SDS011;20137;48.834;8.732;2023-04-09T13:54:50;8.02;;;5.28;;
33830;SDS011;20137;48.834;8.732;2023-04-09T13:57:17;7.88;;;5.47;;
33830;SDS011;20137;48.834;8.732;2023-04-09T13:59:43;6.00;;;4.65;;
33830;SDS011;20137;48.834;8.732;2023-04-09T14:02:08;7.25;;;5.32;;
33830;SDS011;20137;48.834;8.732;2023-04-09T14:04:34;5.60;;;4.65;;
33830;SDS011;20137;48.834;8.732;2023-04-09T14:07:00;6.55;;;4.82;;
33830;SDS011;20137;48.834;8.732;2023-04-09T14:09:26;8.95;;;5.78;;
33830;SDS011;20137;48.834;8.732;2023-04-09T14:11:52;7.43;;;5.47;;
33830;SDS011;20137;48.834;8.732;2023-04-09T14:14:19;8.73;;;4.93;;
33830;SDS011;20137;48.834;8.732;2023-04-09T14:16:45;7.97;;;5.80;;
33830;SDS011;20137;48.834;8.732;2023-04-09T14:19:11;8.48;;;5.32;;
33830;SDS011;20137;48.834;8.732;2023-04-09T14:21:36;6.35;;;5.07;;
33830;SDS011;20137;48.834;8.732;2023-04-09T14:24:03;7.05;;;4.95;;
33830;SDS011;20137;48.834;8.732;2023-04-09T14:26:29;7.07;;;5.57;;
33830;SDS011;20137;48.834;8.732;2023-04-09T14:28:55;7.57;;;5.47;;
33830;SDS011;20137;48.834;8.732;2023-04-09T14:31:21;7.18;;;5.43;;
33830;SDS011;20137;48.834;8.732;2023-04-09T14:33:47;6.10;;;5.00;;
33830;SDS011;20137;48.834;8.732;2023-04-09T14:36:13;7.18;;;5.25;;
33830;SDS011;20137;48.834;8.732;2023-04-09T14:38:38;5.95;;;4.80;;
33830;SDS011;20137;48.834;8.732;2023-04-09T14:41:04;7.18;;;5.10;;
33830;SDS011;20137;48.834;8.732;2023-04-09T14:43:30;7.45;;;5.32;;
33830;SDS011;20137;48.834;8.732;2023-04-09T14:45:56;6.00;;;4.55;;
33830;SDS011;20137;48.834;8.732;2023-04-09T14:48:22;6.40;;;4.55;;
33830;SDS011;20137;48.834;8.732;2023-04-09T14:50:47;6.28;;;5.00;;
33830;SDS011;20137;48.834;8.732;2023-04-09T14:53:16;5.50;;;4.60;;
33830;SDS011;20137;48.834;8.732;2023-04-09T14:55:41;7.00;;;5.15;;
33830;SDS011;20137;48.834;8.732;2023-04-09T14:58:07;6.68;;;4.65;;